createdAt,value
2019-02-11T00:00:53.161Z,953.37
2019-02-11T00:01:53.170Z,953.26
2019-02-11T00:02:53.133Z,953.29
2019-02-11T00:03:59.397Z,953.35
2019-02-11T00:04:54.106Z,953.42
2019-02-11T00:05:53.100Z,953.31
2019-02-11T00:06:53.115Z,953.37
2019-02-11T00:07:53.084Z,953.40
2019-02-11T00:08:53.085Z,953.45
2019-02-11T00:09:53.053Z,953.51
2019-02-11T00:10:53.054Z,953.48
2019-02-11T00:11:53.048Z,953.48
2019-02-11T00:12:53.068Z,953.50
2019-02-11T00:13:53.041Z,953.65
2019-02-11T00:14:53.050Z,953.65
2019-02-11T00:15:53.036Z,953.66
2019-02-11T00:16:52.976Z,953.65
2019-02-11T00:17:52.963Z,953.61
2019-02-11T00:18:52.975Z,953.59
2019-02-11T00:19:52.943Z,953.53
2019-02-11T00:20:52.932Z,953.51
2019-02-11T00:21:52.947Z,953.57
2019-02-11T00:22:52.914Z,953.62
2019-02-11T00:23:52.930Z,953.51
2019-02-11T00:24:52.891Z,953.43
2019-02-11T00:25:52.876Z,953.46
2019-02-11T00:26:52.881Z,953.49
2019-02-11T00:27:52.849Z,953.55
2019-02-11T00:28:52.848Z,953.58
2019-02-11T00:29:52.839Z,953.46
2019-02-11T00:30:52.827Z,953.51
2019-02-11T00:31:52.806Z,953.46
2019-02-11T00:32:52.846Z,953.49
2019-02-11T00:33:52.794Z,953.51
2019-02-11T00:34:52.796Z,953.55
2019-02-11T00:35:52.762Z,953.49
2019-02-11T00:36:52.775Z,953.46
2019-02-11T00:37:52.765Z,953.57
2019-02-11T00:38:52.727Z,953.58
2019-02-11T00:39:52.762Z,953.60
2019-02-11T00:40:52.714Z,953.60
2019-02-11T00:41:52.715Z,953.55
2019-02-11T00:42:52.680Z,953.52
2019-02-11T00:43:52.700Z,953.61
2019-02-11T00:44:52.666Z,953.63
2019-02-11T00:45:52.673Z,953.61
2019-02-11T00:46:52.706Z,953.68
2019-02-11T00:47:52.629Z,953.77
2019-02-11T00:48:52.626Z,953.77
2019-02-11T00:49:52.611Z,953.70
2019-02-11T00:50:52.612Z,953.67
2019-02-11T00:51:52.641Z,953.79
2019-02-11T00:52:52.586Z,953.80
2019-02-11T00:53:52.558Z,953.86
2019-02-11T00:54:52.571Z,953.82
2019-02-11T00:55:52.547Z,953.81
2019-02-11T00:56:52.558Z,953.85
2019-02-11T00:57:52.517Z,953.82
2019-02-11T00:58:52.511Z,953.74
2019-02-11T00:59:52.568Z,953.74
2019-02-11T01:00:52.498Z,953.74
2019-02-11T01:01:52.497Z,953.72
2019-02-11T01:02:52.510Z,953.71
2019-02-11T01:03:52.455Z,953.75
2019-02-11T01:04:52.451Z,953.76
2019-02-11T01:05:52.426Z,953.75
2019-02-11T01:06:52.432Z,953.67
2019-02-11T01:07:52.417Z,953.85
2019-02-11T01:08:52.401Z,953.82
2019-02-11T01:09:52.383Z,953.76
2019-02-11T01:10:52.393Z,953.79
2019-02-11T01:11:52.372Z,953.85
2019-02-11T01:12:52.366Z,953.96
2019-02-11T01:13:52.344Z,953.97
2019-02-11T01:14:52.326Z,953.88
2019-02-11T01:15:52.332Z,953.96
2019-02-11T01:16:52.326Z,953.99
2019-02-11T01:17:52.292Z,954.07
2019-02-11T01:18:52.288Z,954.18
2019-02-11T01:19:52.279Z,954.23
2019-02-11T01:20:52.285Z,954.16
2019-02-11T01:21:52.292Z,954.22
2019-02-11T01:22:52.247Z,954.12
2019-02-11T01:23:52.241Z,954.14
2019-02-11T01:24:52.215Z,954.17
2019-02-11T01:25:52.286Z,954.16
2019-02-11T01:26:52.205Z,954.22
2019-02-11T01:27:52.188Z,954.27
2019-02-11T01:28:52.209Z,954.30
2019-02-11T01:29:52.184Z,954.30
2019-02-11T01:30:52.184Z,954.38
2019-02-11T01:31:52.153Z,954.36
2019-02-11T01:32:52.148Z,954.34
2019-02-11T01:33:52.119Z,954.34
2019-02-11T01:34:52.120Z,954.29
2019-02-11T01:35:52.104Z,954.32
2019-02-11T01:36:52.095Z,954.33
2019-02-11T01:37:52.071Z,954.24
2019-02-11T01:38:52.062Z,954.30
2019-02-11T01:39:52.066Z,954.22
2019-02-11T01:40:52.070Z,954.29
2019-02-11T01:41:52.066Z,954.17
2019-02-11T01:42:52.016Z,954.20
2019-02-11T01:43:52.013Z,954.21
2019-02-11T01:44:52.006Z,954.17
2019-02-11T01:45:51.987Z,954.21
2019-02-11T01:46:51.970Z,954.18
2019-02-11T01:47:51.959Z,954.23
2019-02-11T01:48:52.000Z,954.18
2019-02-11T01:49:51.940Z,954.30
2019-02-11T01:50:51.940Z,954.27
2019-02-11T01:51:51.947Z,954.32
2019-02-11T01:52:51.919Z,954.23
2019-02-11T01:53:51.905Z,954.21
2019-02-11T01:54:51.894Z,954.15
2019-02-11T01:55:51.889Z,954.27
2019-02-11T01:56:51.858Z,954.28
2019-02-11T01:57:51.860Z,954.22
2019-02-11T01:58:51.838Z,954.21
2019-02-11T01:59:51.826Z,954.28
2019-02-11T02:00:51.901Z,954.25
2019-02-11T02:01:51.813Z,954.35
2019-02-11T02:02:51.793Z,954.29
2019-02-11T02:03:51.784Z,954.25
2019-02-11T02:04:51.788Z,954.34
2019-02-11T02:05:51.783Z,954.27
2019-02-11T02:06:51.753Z,954.24
2019-02-11T02:07:51.755Z,954.11
2019-02-11T02:08:51.748Z,954.06
2019-02-11T02:09:51.738Z,954.16
2019-02-11T02:10:51.706Z,954.22
2019-02-11T02:11:51.703Z,954.15
2019-02-11T02:12:51.681Z,954.22
2019-02-11T02:13:51.671Z,954.19
2019-02-11T02:14:51.680Z,954.17
2019-02-11T02:15:51.655Z,954.21
2019-02-11T02:16:51.658Z,954.13
2019-02-11T02:17:51.649Z,954.22
2019-02-11T02:18:51.616Z,954.14
2019-02-11T02:19:51.610Z,954.30
2019-02-11T02:20:51.614Z,954.36
2019-02-11T02:21:51.586Z,954.37
2019-02-11T02:22:51.574Z,954.35
2019-02-11T02:23:51.556Z,954.36
2019-02-11T02:24:51.558Z,954.41
2019-02-11T02:25:51.538Z,954.42
2019-02-11T02:26:51.518Z,954.31
2019-02-11T02:27:51.548Z,954.42
2019-02-11T02:28:51.535Z,954.45
2019-02-11T02:29:51.514Z,954.38
2019-02-11T02:30:51.487Z,954.32
2019-02-11T02:31:51.480Z,954.30
2019-02-11T02:32:51.503Z,954.27
2019-02-11T02:33:51.455Z,954.32
2019-02-11T02:34:51.434Z,954.41
2019-02-11T02:35:51.458Z,954.40
2019-02-11T02:36:51.421Z,954.32
2019-02-11T02:37:51.404Z,954.29
2019-02-11T02:38:51.396Z,954.41
2019-02-11T02:39:51.398Z,954.48
2019-02-11T02:40:51.378Z,954.42
2019-02-11T02:41:51.352Z,954.47
2019-02-11T02:42:51.366Z,954.42
2019-02-11T02:43:55.457Z,954.43
2019-02-11T02:44:51.342Z,954.54
2019-02-11T02:45:51.332Z,954.46
2019-02-11T02:46:51.308Z,954.55
2019-02-11T02:47:51.299Z,954.59
2019-02-11T02:48:51.316Z,954.65
2019-02-11T02:49:51.280Z,954.64
2019-02-11T02:50:51.267Z,954.73
2019-02-11T02:51:51.251Z,954.67
2019-02-11T02:52:51.233Z,954.69
2019-02-11T02:53:51.228Z,954.76
2019-02-11T02:54:51.247Z,954.73
2019-02-11T02:55:51.203Z,954.80
2019-02-11T02:56:51.245Z,954.82
2019-02-11T02:57:51.181Z,954.82
2019-02-11T02:58:51.187Z,954.86
2019-02-11T02:59:51.174Z,954.90
2019-02-11T03:00:51.153Z,954.87
2019-02-11T03:01:51.145Z,954.90
2019-02-11T03:02:51.131Z,955.06
2019-02-11T03:03:51.112Z,954.86
2019-02-11T03:04:51.106Z,954.93
2019-02-11T03:05:53.053Z,954.83
2019-02-11T03:06:51.137Z,954.86
2019-02-11T03:07:51.067Z,954.90
2019-02-11T03:08:51.069Z,954.87
2019-02-11T03:09:51.060Z,954.82
2019-02-11T03:10:51.042Z,954.88
2019-02-11T03:11:51.033Z,954.86
2019-02-11T03:12:51.025Z,955.02
2019-02-11T03:13:50.999Z,954.94
2019-02-11T03:14:50.988Z,955.01
2019-02-11T03:15:51.037Z,955.11
2019-02-11T03:16:50.974Z,955.07
2019-02-11T03:17:50.961Z,955.10
2019-02-11T03:18:50.963Z,955.11
2019-02-11T03:19:50.961Z,955.16
2019-02-11T03:20:50.936Z,955.25
2019-02-11T03:21:50.937Z,955.21
2019-02-11T03:22:50.901Z,955.20
2019-02-11T03:23:50.898Z,955.14
2019-02-11T03:24:50.905Z,955.11
2019-02-11T03:25:50.906Z,955.19
2019-02-11T03:26:50.874Z,955.13
2019-02-11T03:27:50.859Z,955.09
2019-02-11T03:28:50.831Z,955.10
2019-02-11T03:29:50.824Z,955.05
2019-02-11T03:30:50.876Z,955.01
2019-02-11T03:31:50.818Z,955.02
2019-02-11T03:32:50.813Z,955.07
2019-02-11T03:33:50.793Z,954.98
2019-02-11T03:34:50.825Z,955.02
2019-02-11T03:35:50.785Z,955.01
2019-02-11T03:36:50.752Z,954.98
2019-02-11T03:37:50.762Z,955.05
2019-02-11T03:38:50.736Z,955.07
2019-02-11T03:39:50.728Z,955.12
2019-02-11T03:40:50.714Z,955.06
2019-02-11T03:41:50.685Z,955.00
2019-02-11T03:42:50.694Z,955.14
2019-02-11T03:43:50.685Z,955.15
2019-02-11T03:44:50.705Z,955.20
2019-02-11T03:45:50.672Z,955.29
2019-02-11T03:46:50.640Z,955.25
2019-02-11T03:47:50.626Z,955.25
2019-02-11T03:48:50.623Z,955.23
2019-02-11T03:49:50.598Z,955.33
2019-02-11T03:50:50.621Z,955.22
2019-02-11T03:51:50.607Z,955.32
2019-02-11T03:52:50.579Z,955.33
2019-02-11T03:53:50.582Z,955.32
2019-02-11T03:54:50.546Z,955.38
2019-02-11T03:55:50.535Z,955.40
2019-02-11T03:56:50.523Z,955.39
2019-02-11T03:57:50.519Z,955.48
2019-02-11T03:58:50.510Z,955.40
2019-02-11T03:59:50.498Z,955.42
2019-02-11T04:00:50.509Z,955.41
2019-02-11T04:01:50.468Z,955.49
2019-02-11T04:02:50.467Z,955.50
2019-02-11T04:03:50.465Z,955.55
2019-02-11T04:04:50.465Z,955.50
2019-02-11T04:05:50.417Z,955.56
2019-02-11T04:06:50.437Z,955.52
2019-02-11T04:07:50.430Z,955.50
2019-02-11T04:08:50.388Z,955.50
2019-02-11T04:09:50.390Z,955.52
2019-02-11T04:10:50.400Z,955.47
2019-02-11T04:11:50.357Z,955.56
2019-02-11T04:12:50.357Z,955.52
2019-02-11T04:13:50.337Z,955.56
2019-02-11T04:14:50.331Z,955.59
2019-02-11T04:15:50.345Z,955.56
2019-02-11T04:16:50.303Z,955.57
2019-02-11T04:17:50.292Z,955.55
2019-02-11T04:18:50.298Z,955.56
2019-02-11T04:19:50.271Z,955.58
2019-02-11T04:20:50.288Z,955.59
2019-02-11T04:21:50.242Z,955.59
2019-02-11T04:22:50.244Z,955.60
2019-02-11T04:23:50.251Z,955.63
2019-02-11T04:24:50.209Z,955.63
2019-02-11T04:25:50.204Z,955.61
2019-02-11T04:26:50.185Z,955.64
2019-02-11T04:27:50.184Z,955.69
2019-02-11T04:28:50.171Z,955.70
2019-02-11T04:29:50.157Z,955.73
2019-02-11T04:30:50.159Z,955.69
2019-02-11T04:31:50.172Z,955.72
2019-02-11T04:32:50.152Z,955.76
2019-02-11T04:33:50.133Z,955.72
2019-02-11T04:34:50.112Z,955.79
2019-02-11T04:35:50.084Z,955.73
2019-02-11T04:36:50.085Z,955.81
2019-02-11T04:37:50.066Z,955.81
2019-02-11T04:38:50.095Z,955.83
2019-02-11T04:39:50.060Z,955.80
2019-02-11T04:40:50.036Z,955.85
2019-02-11T04:41:50.021Z,955.86
2019-02-11T04:42:50.036Z,955.95
2019-02-11T04:43:50.023Z,955.93
2019-02-11T04:44:50.004Z,955.99
2019-02-11T04:45:49.982Z,955.97
2019-02-11T04:46:49.984Z,955.97
2019-02-11T04:47:50.053Z,956.10
2019-02-11T04:48:49.972Z,956.08
2019-02-11T04:49:49.945Z,956.12
2019-02-11T04:50:49.925Z,956.19
2019-02-11T04:51:49.944Z,956.17
2019-02-11T04:52:49.903Z,956.13
2019-02-11T04:53:49.901Z,956.24
2019-02-11T04:54:49.888Z,956.21
2019-02-11T04:55:49.912Z,956.23
2019-02-11T04:56:49.934Z,956.26
2019-02-11T04:57:49.864Z,956.28
2019-02-11T04:58:49.859Z,956.24
2019-02-11T04:59:49.843Z,956.25
2019-02-11T05:00:49.815Z,956.27
2019-02-11T05:01:49.839Z,956.34
2019-02-11T05:02:49.786Z,956.37
2019-02-11T05:03:49.847Z,956.32
2019-02-11T05:04:49.801Z,956.38
2019-02-11T05:05:49.778Z,956.35
2019-02-11T05:06:49.769Z,956.44
2019-02-11T05:07:49.733Z,956.44
2019-02-11T05:08:49.752Z,956.42
2019-02-11T05:09:49.744Z,956.49
2019-02-11T05:10:49.703Z,956.47
2019-02-11T05:11:49.808Z,956.54
2019-02-11T05:12:49.708Z,956.54
2019-02-11T05:13:49.690Z,956.65
2019-02-11T05:14:49.696Z,956.65
2019-02-11T05:15:49.656Z,956.61
2019-02-11T05:16:49.674Z,956.66
2019-02-11T05:17:49.655Z,956.66
2019-02-11T05:18:49.612Z,956.67
2019-02-11T05:19:49.606Z,956.64
2019-02-11T05:20:49.585Z,956.63
2019-02-11T05:21:49.575Z,956.65
2019-02-11T05:22:49.607Z,956.60
2019-02-11T05:23:49.552Z,956.55
2019-02-11T05:24:49.543Z,956.55
2019-02-11T05:25:49.529Z,956.57
2019-02-11T05:26:49.518Z,956.59
2019-02-11T05:27:49.527Z,956.55
2019-02-11T05:28:49.506Z,956.63
2019-02-11T05:29:49.515Z,956.63
2019-02-11T05:30:49.477Z,956.69
2019-02-11T05:31:49.467Z,956.64
2019-02-11T05:32:49.452Z,956.73
2019-02-11T05:33:49.459Z,956.72
2019-02-11T05:34:49.449Z,956.72
2019-02-11T05:35:49.447Z,956.77
2019-02-11T05:36:49.409Z,956.81
2019-02-11T05:37:49.401Z,956.88
2019-02-11T05:38:49.386Z,956.93
2019-02-11T05:39:49.389Z,956.92
2019-02-11T05:40:49.368Z,956.92
2019-02-11T05:41:49.360Z,956.93
2019-02-11T05:42:49.360Z,956.90
2019-02-11T05:43:49.336Z,956.88
2019-02-11T05:44:53.885Z,956.94
2019-02-11T05:45:49.312Z,956.97
2019-02-11T05:46:49.302Z,957.04
2019-02-11T05:47:49.284Z,957.03
2019-02-11T05:48:49.277Z,957.11
2019-02-11T05:49:49.307Z,957.03
2019-02-11T05:50:49.273Z,957.10
2019-02-11T05:51:49.240Z,957.12
2019-02-11T05:52:49.254Z,957.14
2019-02-11T05:53:49.221Z,957.26
2019-02-11T05:54:49.207Z,957.28
2019-02-11T05:55:49.208Z,957.35
2019-02-11T05:56:49.187Z,957.38
2019-02-11T05:57:49.174Z,957.44
2019-02-11T05:58:49.175Z,957.40
2019-02-11T05:59:49.161Z,957.49
2019-02-11T06:00:49.156Z,957.50
2019-02-11T06:01:49.131Z,957.54
2019-02-11T06:02:49.120Z,957.53
2019-02-11T06:03:49.118Z,957.59
2019-02-11T06:04:49.103Z,957.55
2019-02-11T06:05:49.101Z,957.58
2019-02-11T06:06:49.100Z,957.58
2019-02-11T06:07:49.065Z,957.66
2019-02-11T06:08:49.057Z,957.60
2019-02-11T06:09:49.904Z,957.56
2019-02-11T06:10:49.033Z,957.60
2019-02-11T06:11:49.050Z,957.61
2019-02-11T06:12:49.019Z,957.62
2019-02-11T06:13:48.996Z,957.62
2019-02-11T06:14:48.996Z,957.68
2019-02-11T06:15:48.981Z,957.63
2019-02-11T06:16:48.996Z,957.63
2019-02-11T06:17:48.956Z,957.65
2019-02-11T06:18:48.944Z,957.67
2019-02-11T06:19:48.945Z,957.77
2019-02-11T06:20:48.952Z,957.70
2019-02-11T06:21:48.951Z,957.85
2019-02-11T06:22:48.942Z,957.75
2019-02-11T06:23:48.907Z,957.90
2019-02-11T06:24:48.907Z,957.83
2019-02-11T06:25:48.893Z,957.87
2019-02-11T06:26:48.886Z,957.89
2019-02-11T06:27:48.878Z,957.89
2019-02-11T06:28:48.834Z,958.00
2019-02-11T06:29:48.842Z,958.01
2019-02-11T06:30:48.818Z,958.09
2019-02-11T06:31:48.803Z,958.11
2019-02-11T06:32:48.792Z,958.14
2019-02-11T06:33:48.787Z,958.14
2019-02-11T06:34:48.780Z,958.19
2019-02-11T06:35:48.771Z,958.19
2019-02-11T06:36:48.757Z,958.27
2019-02-11T06:37:48.740Z,958.25
2019-02-11T06:38:48.739Z,958.31
2019-02-11T06:39:48.713Z,958.32
2019-02-11T06:40:48.714Z,958.38
2019-02-11T06:41:48.688Z,958.40
2019-02-11T06:42:48.676Z,958.40
2019-02-11T06:43:48.667Z,958.45
2019-02-11T06:44:48.659Z,958.48
2019-02-11T06:45:48.651Z,958.58
2019-02-11T06:46:48.634Z,958.57
2019-02-11T06:47:48.628Z,958.64
2019-02-11T06:48:48.613Z,958.64
2019-02-11T06:49:48.621Z,958.67
2019-02-11T06:50:48.604Z,958.73
2019-02-11T06:51:48.584Z,958.77
2019-02-11T06:52:48.577Z,958.77
2019-02-11T06:53:48.584Z,958.79
2019-02-11T06:54:48.559Z,958.85
2019-02-11T06:55:48.549Z,958.88
2019-02-11T06:56:48.521Z,958.90
2019-02-11T06:57:48.512Z,958.96
2019-02-11T06:58:48.519Z,959.01
2019-02-11T06:59:48.499Z,958.99
2019-02-11T07:00:48.500Z,958.97
2019-02-11T07:01:48.521Z,959.01
2019-02-11T07:02:48.470Z,959.08
2019-02-11T07:03:48.471Z,958.99
2019-02-11T07:04:48.455Z,959.05
2019-02-11T07:05:48.426Z,959.16
2019-02-11T07:06:48.413Z,959.12
2019-02-11T07:07:48.412Z,959.14
2019-02-11T07:08:48.390Z,959.19
2019-02-11T07:09:48.420Z,959.21
2019-02-11T07:10:55.465Z,959.25
2019-02-11T07:11:49.437Z,959.30
2019-02-11T07:12:48.390Z,959.32
2019-02-11T07:13:48.351Z,959.38
2019-02-11T07:14:48.332Z,959.34
2019-02-11T07:15:48.389Z,959.44
2019-02-11T07:16:48.318Z,959.44
2019-02-11T07:17:48.298Z,959.40
2019-02-11T07:18:48.288Z,959.56
2019-02-11T07:19:48.287Z,959.54
2019-02-11T07:20:48.273Z,959.60
2019-02-11T07:21:48.271Z,959.62
2019-02-11T07:22:48.257Z,959.69
2019-02-11T07:23:48.243Z,959.70
2019-02-11T07:24:48.212Z,959.70
2019-02-11T07:25:48.202Z,959.76
2019-02-11T07:26:48.219Z,959.84
2019-02-11T07:27:48.177Z,959.91
2019-02-11T07:28:48.206Z,959.90
2019-02-11T07:29:48.177Z,959.89
2019-02-11T07:30:48.155Z,959.92
2019-02-11T07:31:48.144Z,959.91
2019-02-11T07:32:48.163Z,959.95
2019-02-11T07:33:48.131Z,959.98
2019-02-11T07:34:48.101Z,959.97
2019-02-11T07:35:48.092Z,960.03
2019-02-11T07:36:48.088Z,960.01
2019-02-11T07:37:48.098Z,960.05
2019-02-11T07:38:48.063Z,960.13
2019-02-11T07:39:48.046Z,960.17
2019-02-11T07:40:48.038Z,960.15
2019-02-11T07:41:48.023Z,960.20
2019-02-11T07:42:48.027Z,960.23
2019-02-11T07:43:48.017Z,960.19
2019-02-11T07:44:47.990Z,960.28
2019-02-11T07:45:47.982Z,960.35
2019-02-11T07:46:47.968Z,960.31
2019-02-11T07:47:47.963Z,960.35
2019-02-11T07:48:47.949Z,960.36
2019-02-11T07:49:47.940Z,960.36
2019-02-11T07:50:47.930Z,960.36
2019-02-11T07:51:47.939Z,960.48
2019-02-11T07:52:47.905Z,960.43
2019-02-11T07:53:47.896Z,960.43
2019-02-11T07:54:47.926Z,960.44
2019-02-11T07:55:47.872Z,960.49
2019-02-11T07:56:47.866Z,960.48
2019-02-11T07:57:47.850Z,960.52
2019-02-11T07:58:47.841Z,960.52
2019-02-11T07:59:47.835Z,960.50
2019-02-11T08:00:47.827Z,960.50
2019-02-11T08:01:47.824Z,960.54
2019-02-11T08:02:47.798Z,960.57
2019-02-11T08:03:47.806Z,960.59
2019-02-11T08:04:47.783Z,960.56
2019-02-11T08:05:47.764Z,960.62
2019-02-11T08:06:47.773Z,960.68
2019-02-11T08:07:47.744Z,960.71
2019-02-11T08:08:47.768Z,960.63
2019-02-11T08:09:47.716Z,960.70
2019-02-11T08:10:47.723Z,960.65
2019-02-11T08:11:47.702Z,960.64
2019-02-11T08:12:47.696Z,960.77
2019-02-11T08:13:47.676Z,960.71
2019-02-11T08:14:47.666Z,960.68
2019-02-11T08:15:47.649Z,960.73
2019-02-11T08:16:47.644Z,960.74
2019-02-11T08:17:47.628Z,960.81
2019-02-11T08:18:47.620Z,960.83
2019-02-11T08:19:47.609Z,960.80
2019-02-11T08:20:47.621Z,960.89
2019-02-11T08:21:47.584Z,960.89
2019-02-11T08:22:47.572Z,960.95
2019-02-11T08:23:47.569Z,960.96
2019-02-11T08:24:47.557Z,960.99
2019-02-11T08:25:47.595Z,960.95
2019-02-11T08:26:47.543Z,961.01
2019-02-11T08:27:47.518Z,961.05
2019-02-11T08:28:47.510Z,960.99
2019-02-11T08:29:47.509Z,961.04
2019-02-11T08:30:47.505Z,961.08
2019-02-11T08:31:47.502Z,961.07
2019-02-11T08:32:47.495Z,961.08
2019-02-11T08:33:47.495Z,961.08
2019-02-11T08:34:47.437Z,961.12
2019-02-11T08:35:47.437Z,961.14
2019-02-11T08:36:47.431Z,961.18
2019-02-11T08:37:47.409Z,961.12
2019-02-11T08:38:47.414Z,961.19
2019-02-11T08:39:47.382Z,961.21
2019-02-11T08:40:47.372Z,961.20
2019-02-11T08:41:47.365Z,961.31
2019-02-11T08:42:47.358Z,961.25
2019-02-11T08:43:47.342Z,961.28
2019-02-11T08:44:47.337Z,961.30
2019-02-11T08:45:47.437Z,961.35
2019-02-11T08:46:47.306Z,961.30
2019-02-11T08:47:47.319Z,961.34
2019-02-11T08:48:47.283Z,961.39
2019-02-11T08:49:47.271Z,961.43
2019-02-11T08:50:47.287Z,961.43
2019-02-11T08:51:47.255Z,961.44
2019-02-11T08:52:47.247Z,961.44
2019-02-11T08:53:47.236Z,961.46
2019-02-11T08:54:47.224Z,961.52
2019-02-11T08:55:47.212Z,961.54
2019-02-11T08:56:47.202Z,961.57
2019-02-11T08:57:47.183Z,961.61
2019-02-11T08:58:47.217Z,961.63
2019-02-11T08:59:47.181Z,961.64
2019-02-11T09:00:47.150Z,961.68
2019-02-11T09:01:47.155Z,961.70
2019-02-11T09:02:47.144Z,961.70
2019-02-11T09:03:47.135Z,961.78
2019-02-11T09:04:47.138Z,961.74
2019-02-11T09:05:47.127Z,961.76
2019-02-11T09:06:47.095Z,961.78
2019-02-11T09:07:47.156Z,961.85
2019-02-11T09:08:47.075Z,961.86
2019-02-11T09:09:47.069Z,961.88
2019-02-11T09:10:47.046Z,961.91
2019-02-11T09:11:47.034Z,961.90
2019-02-11T09:12:47.023Z,961.96
2019-02-11T09:13:47.022Z,961.97
2019-02-11T09:14:47.017Z,961.94
2019-02-11T09:15:55.089Z,961.96
2019-02-11T09:16:48.039Z,962.00
2019-02-11T09:17:46.966Z,961.97
2019-02-11T09:18:46.950Z,961.95
2019-02-11T09:19:46.957Z,961.95
2019-02-11T09:20:46.967Z,962.02
2019-02-11T09:21:46.918Z,962.06
2019-02-11T09:22:46.907Z,962.13
2019-02-11T09:23:46.900Z,962.13
2019-02-11T09:24:46.884Z,962.13
2019-02-11T09:25:46.878Z,962.09
2019-02-11T09:26:46.887Z,962.15
2019-02-11T09:27:46.906Z,962.11
2019-02-11T09:28:46.875Z,962.16
2019-02-11T09:29:46.840Z,962.17
2019-02-11T09:30:46.824Z,962.15
2019-02-11T09:31:46.809Z,962.24
2019-02-11T09:32:46.807Z,962.25
2019-02-11T09:33:46.782Z,962.24
2019-02-11T09:34:46.782Z,962.28
2019-02-11T09:35:46.789Z,962.28
2019-02-11T09:36:46.753Z,962.31
2019-02-11T09:37:46.742Z,962.29
2019-02-11T09:38:46.729Z,962.37
2019-02-11T09:39:46.715Z,962.35
2019-02-11T09:40:46.735Z,962.43
2019-02-11T09:41:46.723Z,962.38
2019-02-11T09:42:46.713Z,962.38
2019-02-11T09:43:46.695Z,962.40
2019-02-11T09:44:46.660Z,962.38
2019-02-11T09:45:46.649Z,962.38
2019-02-11T09:46:46.655Z,962.48
2019-02-11T09:47:46.631Z,962.51
2019-02-11T09:48:46.656Z,962.48
2019-02-11T09:49:46.637Z,962.52
2019-02-11T09:50:47.444Z,962.48
2019-02-11T09:51:46.590Z,962.54
2019-02-11T09:52:46.576Z,962.54
2019-02-11T09:53:46.578Z,962.57
2019-02-11T09:54:46.583Z,962.57
2019-02-11T09:55:46.538Z,962.55
2019-02-11T09:56:46.555Z,962.62
2019-02-11T09:57:46.552Z,962.66
2019-02-11T09:58:46.522Z,962.67
2019-02-11T09:59:46.524Z,962.71
2019-02-11T10:00:46.486Z,962.75
2019-02-11T10:01:46.552Z,962.70
2019-02-11T10:02:46.488Z,962.71
2019-02-11T10:03:46.453Z,962.81
2019-02-11T10:04:46.451Z,962.80
2019-02-11T10:05:46.442Z,962.79
2019-02-11T10:06:46.417Z,962.86
2019-02-11T10:07:46.418Z,962.86
2019-02-11T10:08:46.395Z,962.89
2019-02-11T10:09:47.912Z,962.93
2019-02-11T10:10:46.398Z,962.96
2019-02-11T10:11:46.360Z,962.88
2019-02-11T10:12:46.447Z,962.95
2019-02-11T10:13:46.343Z,962.97
2019-02-11T10:14:46.327Z,963.01
2019-02-11T10:15:46.339Z,963.01
2019-02-11T10:16:46.326Z,963.00
2019-02-11T10:17:46.294Z,963.03
2019-02-11T10:18:46.288Z,963.07
2019-02-11T10:19:46.272Z,963.08
2019-02-11T10:20:46.268Z,963.15
2019-02-11T10:21:46.253Z,963.11
2019-02-11T10:22:46.243Z,963.16
2019-02-11T10:23:46.280Z,963.20
2019-02-11T10:24:46.217Z,963.17
2019-02-11T10:25:46.208Z,963.20
2019-02-11T10:26:47.170Z,963.23
2019-02-11T10:27:46.186Z,963.28
2019-02-11T10:28:46.172Z,963.28
2019-02-11T10:29:46.176Z,963.30
2019-02-11T10:30:46.168Z,963.32
2019-02-11T10:31:46.138Z,963.36
2019-02-11T10:32:46.146Z,963.40
2019-02-11T10:33:46.119Z,963.37
2019-02-11T10:34:46.138Z,963.39
2019-02-11T10:35:46.096Z,963.40
2019-02-11T10:36:46.088Z,963.43
2019-02-11T10:37:46.074Z,963.41
2019-02-11T10:38:46.061Z,963.41
2019-02-11T10:39:46.097Z,963.46
2019-02-11T10:40:46.072Z,963.50
2019-02-11T10:41:46.027Z,963.48
2019-02-11T10:42:46.035Z,963.47
2019-02-11T10:43:46.035Z,963.50
2019-02-11T10:44:45.994Z,963.55
2019-02-11T10:45:46.008Z,963.56
2019-02-11T10:46:45.977Z,963.61
2019-02-11T10:47:45.967Z,963.51
2019-02-11T10:48:45.950Z,963.59
2019-02-11T10:49:45.977Z,963.54
2019-02-11T10:50:45.946Z,963.53
2019-02-11T10:51:45.935Z,963.57
2019-02-11T10:52:45.929Z,963.60
2019-02-11T10:53:45.912Z,963.55
2019-02-11T10:54:45.896Z,963.63
2019-02-11T10:55:45.889Z,963.59
2019-02-11T10:56:45.881Z,963.61
2019-02-11T10:57:45.875Z,963.63
2019-02-11T10:58:45.858Z,963.68
2019-02-11T10:59:45.831Z,963.61
2019-02-11T11:00:45.880Z,963.65
2019-02-11T11:01:45.819Z,963.71
2019-02-11T11:02:45.820Z,963.69
2019-02-11T11:03:45.788Z,963.65
2019-02-11T11:04:45.810Z,963.64
2019-02-11T11:05:45.769Z,963.69
2019-02-11T11:06:45.787Z,963.61
2019-02-11T11:07:45.780Z,963.69
2019-02-11T11:08:45.735Z,963.61
2019-02-11T11:09:45.730Z,963.60
2019-02-11T11:10:45.727Z,963.66
2019-02-11T11:11:45.726Z,963.63
2019-02-11T11:12:45.711Z,963.67
2019-02-11T11:13:45.688Z,963.71
2019-02-11T11:14:45.683Z,963.70
2019-02-11T11:15:45.654Z,963.68
2019-02-11T11:16:45.655Z,963.76
2019-02-11T11:17:45.637Z,963.77
2019-02-11T11:18:45.628Z,963.75
2019-02-11T11:19:45.620Z,963.82
2019-02-11T11:20:45.604Z,963.79
2019-02-11T11:21:45.598Z,963.86
2019-02-11T11:22:45.588Z,963.92
2019-02-11T11:23:45.589Z,963.91
2019-02-11T11:24:45.556Z,963.91
2019-02-11T11:25:45.588Z,963.91
2019-02-11T11:26:45.550Z,963.93
2019-02-11T11:27:45.533Z,963.91
2019-02-11T11:28:45.535Z,963.85
2019-02-11T11:29:45.514Z,963.95
2019-02-11T11:30:45.505Z,963.91
2019-02-11T11:31:45.487Z,963.99
2019-02-11T11:32:45.514Z,963.95
2019-02-11T11:33:45.462Z,963.98
2019-02-11T11:34:45.461Z,964.03
2019-02-11T11:35:45.435Z,964.09
2019-02-11T11:36:45.418Z,964.08
2019-02-11T11:37:45.429Z,964.17
2019-02-11T11:38:45.445Z,964.19
2019-02-11T11:39:45.410Z,964.15
2019-02-11T11:40:45.390Z,964.26
2019-02-11T11:41:45.406Z,964.22
2019-02-11T11:42:45.357Z,964.19
2019-02-11T11:43:45.380Z,964.26
2019-02-11T11:44:45.363Z,964.26
2019-02-11T11:45:45.337Z,964.31
2019-02-11T11:46:47.106Z,964.18
2019-02-11T11:47:45.332Z,964.30
2019-02-11T11:48:45.306Z,964.21
2019-02-11T11:49:45.299Z,964.33
2019-02-11T11:50:45.266Z,964.31
2019-02-11T11:51:45.261Z,964.29
2019-02-11T11:52:45.273Z,964.38
2019-02-11T11:53:45.247Z,964.34
2019-02-11T11:54:45.273Z,964.40
2019-02-11T11:55:45.215Z,964.46
2019-02-11T11:56:45.220Z,964.44
2019-02-11T11:57:45.199Z,964.44
2019-02-11T11:58:45.192Z,964.41
2019-02-11T11:59:45.179Z,964.46
2019-02-11T12:00:45.161Z,964.46
2019-02-11T12:01:45.207Z,964.51
2019-02-11T12:03:00.778Z,964.54
2019-02-11T12:03:46.127Z,964.52
2019-02-11T12:04:45.154Z,964.58
2019-02-11T12:05:45.157Z,964.57
2019-02-11T12:06:45.110Z,964.54
2019-02-11T12:07:45.080Z,964.61
2019-02-11T12:08:45.074Z,964.57
2019-02-11T12:09:45.110Z,964.67
2019-02-11T12:10:45.052Z,964.62
2019-02-11T12:11:45.042Z,964.70
2019-02-11T12:12:45.056Z,964.65
2019-02-11T12:13:45.036Z,964.69
2019-02-11T12:14:45.044Z,964.76
2019-02-11T12:15:45.033Z,964.77
2019-02-11T12:16:56.186Z,964.82
2019-02-11T12:17:46.091Z,964.75
2019-02-11T12:18:45.011Z,964.81
2019-02-11T12:19:45.054Z,964.76
2019-02-11T12:20:45.046Z,964.80
2019-02-11T12:21:44.957Z,964.79
2019-02-11T12:22:44.996Z,964.76
2019-02-11T12:23:44.942Z,964.79
2019-02-11T12:24:44.964Z,964.80
2019-02-11T12:25:44.876Z,964.87
2019-02-11T12:26:44.873Z,964.88
2019-02-11T12:27:44.866Z,964.85
2019-02-11T12:28:44.866Z,964.90